Time;durP1;ratioP1;P1;durP2;ratioP2;P2;SDS_P1;SDS_P2;PMS_P1;PMS_P2;Temp;Humidity;BMP_temperature;BMP_pressure;BME280_temperature;BME280_humidity;BME280_pressure;Samples;Min_cycle;Max_cycle;Signal;HPM_P1;HPM_P2
2021/06/17 00:00:18;;;;;;;12.82;7.90;;;;;;;14.52;68.82;90762.81;4981836;28;20500;-82
2021/06/17 00:02:58;;;;;;;11.82;7.90;;;;;;;14.41;69.76;90761.09;4982466;28;20480;-82
2021/06/17 00:05:41;;;;;;;11.90;8.13;;;;;;;14.46;69.64;90751.06;4982489;28;20033;-83
2021/06/17 00:08:18;;;;;;;14.00;8.43;;;;;;;14.32;70.24;90756.13;4997844;28;20023;-82
2021/06/17 00:10:53;;;;;;;15.65;8.50;;;;;;;14.20;70.39;90751.81;4996924;28;20018;-83
2021/06/17 00:13:31;;;;;;;16.23;8.40;;;;;;;14.10;70.93;90744.59;4981621;28;20080;-82
2021/06/17 00:16:11;;;;;;;17.52;8.40;;;;;;;14.02;70.95;90756.06;4996888;28;20022;-82
2021/06/17 00:18:47;;;;;;;15.52;8.85;;;;;;;13.94;71.17;90759.69;4997189;28;20254;-83
2021/06/17 00:21:40;;;;;;;15.10;8.98;;;;;;;13.94;70.92;90762.31;4996251;28;20377;-82
2021/06/17 00:24:18;;;;;;;13.93;8.57;;;;;;;13.87;71.19;90752.47;4998325;28;20392;-82
2021/06/17 00:26:57;;;;;;;18.45;8.38;;;;;;;13.83;71.16;90760.28;4995802;28;20046;-83
2021/06/17 00:29:30;;;;;;;18.17;8.90;;;;;;;13.84;71.10;90756.56;4996495;28;20026;-83
2021/06/17 00:32:07;;;;;;;19.92;8.73;;;;;;;13.69;71.63;90752.22;4980359;28;20388;-83
2021/06/17 00:34:46;;;;;;;15.23;8.65;;;;;;;13.76;71.90;90749.69;4996889;28;20045;-82
2021/06/17 00:37:22;;;;;;;14.35;8.40;;;;;;;13.69;71.70;90749.59;4981462;28;20491;-82
2021/06/17 00:39:58;;;;;;;14.48;8.80;;;;;;;13.75;71.69;90757.91;4997499;28;20041;-83
2021/06/17 00:42:42;;;;;;;13.43;7.80;;;;;;;13.72;71.84;90737.66;4981040;28;20026;-83
2021/06/17 00:45:32;;;;;;;17.70;8.30;;;;;;;13.78;71.53;90737.03;4996647;28;20038;-86
2021/06/17 00:48:07;;;;;;;14.63;7.82;;;;;;;13.94;70.40;90733.50;4997625;28;20030;-82
2021/06/17 00:50:56;;;;;;;14.73;8.23;;;;;;;13.85;70.89;90731.91;4996924;28;20076;-82
2021/06/17 00:53:38;;;;;;;16.52;8.18;;;;;;;13.83;71.47;90723.63;4983061;28;20022;-82
2021/06/17 00:56:15;;;;;;;12.18;7.43;;;;;;;13.78;70.82;90728.38;4996773;28;20036;-82
2021/06/17 00:58:58;;;;;;;13.05;7.82;;;;;;;13.74;70.73;90725.72;4980200;28;20053;-82
2021/06/17 01:01:36;;;;;;;16.38;8.43;;;;;;;13.49;72.30;90719.34;4997217;28;20029;-82
2021/06/17 01:04:18;;;;;;;14.25;7.70;;;;;;;13.71;71.16;90713.34;4997095;28;20033;-82
2021/06/17 01:06:52;;;;;;;12.68;7.72;;;;;;;13.80;71.06;90723.56;4996041;28;20475;-82
2021/06/17 01:09:52;;;;;;;15.35;7.88;;;;;;;13.68;70.92;90721.16;4980442;28;20026;-82
2021/06/17 01:12:57;;;;;;;14.45;7.13;;;;;;;13.72;70.12;90706.25;4995914;28;20022;-83
2021/06/17 01:15:31;;;;;;;12.55;6.95;;;;;;;13.67;70.35;90704.66;4996940;28;20026;-83
2021/06/17 01:18:18;;;;;;;13.95;7.70;;;;;;;13.57;70.66;90706.03;4980465;28;20022;-84
2021/06/17 01:20:59;;;;;;;10.57;6.90;;;;;;;13.64;70.58;90697.53;4996066;28;20030;-82
2021/06/17 01:23:49;;;;;;;19.02;7.53;;;;;;;13.71;70.47;90695.03;4995714;28;20088;-83
2021/06/17 01:26:27;;;;;;;15.63;7.60;;;;;;;13.66;70.34;90697.91;4995400;28;20029;-83
2021/06/17 01:29:03;;;;;;;18.50;7.20;;;;;;;13.69;70.34;90705.06;4995336;28;20026;-82
2021/06/17 01:31:33;;;;;;;12.88;6.93;;;;;;;13.71;70.14;90705.50;4995924;28;20512;-83
2021/06/17 01:34:11;;;;;;;11.55;7.28;;;;;;;13.68;70.10;90705.44;4979936;28;20030;-82
2021/06/17 01:36:53;;;;;;;10.95;7.28;;;;;;;13.62;70.84;90710.22;4981456;28;20037;-83
2021/06/17 01:39:34;;;;;;;15.82;7.25;;;;;;;13.62;70.96;90704.97;4980817;28;20022;-82
2021/06/17 01:42:14;;;;;;;13.00;7.72;;;;;;;13.51;71.49;90710.03;4995482;28;20456;-82
2021/06/17 01:44:55;;;;;;;12.02;7.30;;;;;;;13.53;71.13;90709.69;4980146;28;20101;-82
2021/06/17 01:47:36;;;;;;;17.17;8.20;;;;;;;13.55;70.84;90712.72;4995210;28;20038;-83
2021/06/17 01:50:20;;;;;;;11.48;7.10;;;;;;;13.55;70.81;90723.19;4979627;28;20053;-83
2021/06/17 01:53:00;;;;;;;11.85;7.47;;;;;;;13.57;70.61;90721.00;4995636;28;20026;-83
2021/06/17 01:55:40;;;;;;;11.57;7.43;;;;;;;13.62;70.38;90718.06;4980774;28;20034;-84
2021/06/17 01:58:18;;;;;;;17.92;7.45;;;;;;;13.67;70.32;90725.59;4980656;28;20018;-83
2021/06/17 02:00:56;;;;;;;12.75;7.20;;;;;;;13.65;70.46;90725.22;5055096;23;20133;-85
2021/06/17 02:03:36;;;;;;;9.88;6.32;;;;;;;13.48;71.05;90725.69;4980533;28;20030;-85
2021/06/17 02:06:14;;;;;;;15.50;8.05;;;;;;;13.35;71.69;90725.84;4978796;28;20030;-85
2021/06/17 02:08:54;;;;;;;12.85;7.40;;;;;;;13.25;71.90;90730.91;4995343;28;20027;-85
2021/06/17 02:11:36;;;;;;;17.00;8.23;;;;;;;13.23;71.91;90733.84;4975935;28;20057;-85
2021/06/17 02:14:13;;;;;;;13.27;8.60;;;;;;;13.20;72.06;90729.31;4962299;28;20022;-85
2021/06/17 02:16:51;;;;;;;17.63;7.95;;;;;;;13.26;71.67;90743.66;4961750;28;20026;-87
2021/06/17 02:19:37;;;;;;;14.43;8.20;;;;;;;13.13;71.80;90740.41;4961506;28;20113;-85
2021/06/17 02:22:10;;;;;;;14.52;8.48;;;;;;;12.91;72.63;90728.81;4977609;28;20460;-86
2021/06/17 02:24:51;;;;;;;17.25;8.32;;;;;;;12.94;72.85;90737.81;4963218;28;20400;-89
2021/06/17 02:27:41;;;;;;;16.00;7.82;;;;;;;12.88;72.87;90739.97;4983056;28;20090;-89
2021/06/17 02:30:20;;;;;;;15.73;8.13;;;;;;;12.88;73.20;90739.19;4972344;28;20031;-85
2021/06/17 02:32:58;;;;;;;14.82;8.15;;;;;;;12.89;73.27;90733.63;4943261;28;20058;-86
2021/06/17 02:35:42;;;;;;;11.82;7.85;;;;;;;13.00;72.74;90746.13;4973873;28;20567;-86
2021/06/17 02:38:15;;;;;;;18.63;8.80;;;;;;;12.96;72.25;90735.59;4943567;28;20031;-86
2021/06/17 02:40:54;;;;;;;21.98;9.00;;;;;;;12.78;73.01;90737.88;4958722;28;20031;-85
2021/06/17 02:43:34;;;;;;;14.35;9.65;;;;;;;12.73;73.39;90735.56;4974830;28;20041;-85
2021/06/17 02:46:14;;;;;;;13.45;7.57;;;;;;;12.73;74.13;90740.78;4959024;28;20022;-86
2021/06/17 02:48:50;;;;;;;14.23;6.72;;;;;;;12.74;73.24;90742.31;4974310;28;20392;-86
2021/06/17 02:51:30;;;;;;;12.80;7.22;;;;;;;12.76;72.93;90749.81;4974038;28;20031;-87
2021/06/17 02:54:06;;;;;;;15.38;7.30;;;;;;;12.85;72.87;90745.13;4974005;28;20023;-87
2021/06/17 02:57:15;;;;;;;10.93;7.40;;;;;;;12.88;72.89;90750.41;4958093;28;20031;-85
2021/06/17 02:59:58;;;;;;;12.45;6.97;;;;;;;13.08;72.45;90753.03;4973519;28;20054;-86
2021/06/17 03:03:08;;;;;;;11.68;7.10;;;;;;;12.88;73.32;90760.88;4973724;28;20031;-85
2021/06/17 03:05:51;;;;;;;12.13;6.70;;;;;;;12.86;72.97;90760.47;4975042;28;20041;-86
2021/06/17 03:08:30;;;;;;;11.18;6.65;;;;;;;12.84;72.54;90757.44;4958480;28;20023;-86
2021/06/17 03:11:00;;;;;;;10.00;6.10;;;;;;;12.85;72.73;90751.09;4958330;28;20035;-86
2021/06/17 03:13:40;;;;;;;17.95;6.57;;;;;;;12.79;73.00;90762.19;4957450;28;20033;-86
2021/06/17 03:16:17;;;;;;;13.02;6.40;;;;;;;12.88;72.79;90750.41;4942877;28;20117;-86
2021/06/17 03:19:00;;;;;;;12.10;7.00;;;;;;;12.74;73.84;90758.00;4958654;28;20022;-86
2021/06/17 03:21:38;;;;;;;13.73;6.72;;;;;;;12.75;72.92;90756.13;4957726;28;20034;-86
2021/06/17 03:24:17;;;;;;;11.98;6.72;;;;;;;12.72;73.17;90762.03;4958257;28;20023;-86
2021/06/17 03:26:55;;;;;;;12.85;6.90;;;;;;;12.78;72.59;90755.44;4972659;28;20027;-86
2021/06/17 03:29:31;;;;;;;10.68;5.82;;;;;;;12.79;72.02;90747.28;4957675;28;20039;-86
2021/06/17 03:32:11;;;;;;;9.77;6.18;;;;;;;12.76;71.87;90755.81;4957447;28;20023;-86
2021/06/17 03:34:44;;;;;;;12.40;6.00;;;;;;;12.84;71.39;90749.59;4958142;28;20059;-86
2021/06/17 03:37:20;;;;;;;12.23;5.90;;;;;;;12.87;70.92;90751.53;4968013;28;20014;-86
2021/06/17 03:39:56;;;;;;;9.48;6.03;;;;;;;12.97;70.67;90747.59;4992650;28;20038;-86
2021/06/17 03:42:36;;;;;;;12.18;5.93;;;;;;;12.88;70.88;90750.41;4977779;28;20022;-86
2021/06/17 03:45:16;;;;;;;12.73;6.22;;;;;;;12.90;71.14;90750.84;4977811;28;20026;-86
2021/06/17 03:47:52;;;;;;;20.55;6.30;;;;;;;12.89;70.81;90754.53;4977685;28;20018;-86
2021/06/17 03:50:31;;;;;;;10.98;6.95;;;;;;;12.98;71.83;90753.59;4992982;28;20022;-86
2021/06/17 03:53:08;;;;;;;10.45;7.38;;;;;;;12.72;73.20;90756.81;4993322;28;20455;-87
2021/06/17 03:55:40;;;;;;;9.02;6.38;;;;;;;12.72;72.41;90770.66;4977246;28;20535;-86
2021/06/17 03:58:19;;;;;;;14.48;6.43;;;;;;;12.87;72.19;90764.59;4994495;28;20084;-86
2021/06/17 04:01:03;;;;;;;8.20;5.93;;;;;;;12.86;71.87;90765.72;4976455;28;20030;-85
2021/06/17 04:03:42;;;;;;;9.00;6.30;;;;;;;12.82;71.95;90762.25;4996387;28;20026;-86
2021/06/17 04:06:19;;;;;;;11.48;6.45;;;;;;;12.94;71.10;90760.63;4996555;28;20081;-86
2021/06/17 04:09:00;;;;;;;13.20;6.38;;;;;;;12.97;69.98;90765.91;4980561;28;20033;-86
2021/06/17 04:11:42;;;;;;;12.32;6.65;;;;;;;13.02;69.60;90764.88;4979697;28;20041;-86
2021/06/17 04:14:20;;;;;;;13.27;7.28;;;;;;;13.04;69.42;90765.25;4964710;28;20118;-87
2021/06/17 04:17:00;;;;;;;17.17;5.85;;;;;;;13.19;69.86;90766.31;4961320;28;20113;-86
2021/06/17 04:19:37;;;;;;;14.02;5.43;;;;;;;13.23;69.21;90757.41;4944934;28;20038;-86
2021/06/17 04:22:13;;;;;;;11.30;5.70;;;;;;;13.41;67.86;90751.75;4961679;28;20031;-86
2021/06/17 04:24:51;;;;;;;10.50;5.88;;;;;;;13.46;68.13;90752.19;4978117;28;20019;-86
2021/06/17 04:27:30;;;;;;;9.20;5.63;;;;;;;13.56;68.01;90748.25;4963320;28;20023;-85
2021/06/17 04:30:10;;;;;;;9.07;5.82;;;;;;;13.59;68.29;90744.94;4962437;28;20133;-87
2021/06/17 04:32:48;;;;;;;11.23;6.05;;;;;;;13.62;68.67;90752.09;4963340;28;20511;-87
2021/06/17 04:35:29;;;;;;;10.80;6.13;;;;;;;13.61;68.95;90753.22;4963105;28;20050;-86
2021/06/17 04:38:06;;;;;;;11.73;6.00;;;;;;;13.65;68.72;90748.03;4979323;28;20026;-86
2021/06/17 04:40:39;;;;;;;11.45;6.38;;;;;;;13.77;68.63;90753.81;4997250;28;20488;-86
2021/06/17 04:43:14;;;;;;;10.65;6.07;;;;;;;13.86;68.69;90754.34;4981779;28;20109;-86
2021/06/17 04:45:49;;;;;;;12.48;6.63;;;;;;;13.93;68.44;90752.94;4981051;28;20038;-86
2021/06/17 04:48:26;;;;;;;12.40;6.28;;;;;;;13.94;69.12;90752.59;4981866;28;20280;-86
2021/06/17 04:51:00;;;;;;;12.60;6.57;;;;;;;14.00;69.06;90758.31;4996861;28;20046;-86
2021/06/17 04:53:43;;;;;;;10.02;6.25;;;;;;;14.18;69.05;90748.81;4980333;28;20060;-86
2021/06/17 04:56:22;;;;;;;11.48;6.43;;;;;;;14.20;69.22;90759.69;4980261;28;20030;-87
2021/06/17 04:59:01;;;;;;;9.77;7.00;;;;;;;14.25;69.59;90764.66;4997010;28;20483;-86
2021/06/17 05:01:36;;;;;;;13.80;6.78;;;;;;;14.25;70.01;90763.91;4981710;28;20038;-86
2021/06/17 05:04:17;;;;;;;13.95;6.78;;;;;;;14.34;68.84;90756.50;4980922;28;20018;-86
2021/06/17 05:12:31;;;;;;;10.80;6.60;;;;;;;14.72;68.07;90766.03;4983780;28;20097;-86
2021/06/17 05:15:07;;;;;;;10.90;6.05;;;;;;;14.83;67.90;90766.16;4997941;28;20026;-86
2021/06/17 05:17:45;;;;;;;16.77;7.22;;;;;;;15.06;68.03;90768.69;4998720;28;20026;-87
2021/06/17 05:20:26;;;;;;;14.95;6.60;;;;;;;15.19;67.49;90780.44;4996389;28;20041;-86
2021/06/17 05:23:06;;;;;;;12.32;6.82;;;;;;;15.35;67.34;90774.22;4965565;28;20474;-86
2021/06/17 05:25:44;;;;;;;12.57;6.40;;;;;;;15.44;67.21;90783.34;4941245;28;20118;-86
2021/06/17 05:28:18;;;;;;;15.35;6.75;;;;;;;15.51;67.03;90777.38;4972407;28;20488;-86
2021/06/17 05:31:00;;;;;;;9.77;6.38;;;;;;;15.61;66.71;90779.34;4970702;28;20031;-86
2021/06/17 05:33:34;;;;;;;12.13;6.65;;;;;;;15.85;66.18;90774.72;4971918;28;20485;-86
2021/06/17 05:36:10;;;;;;;18.58;7.18;;;;;;;15.99;66.18;90774.81;4973562;28;20110;-86
2021/06/17 05:38:48;;;;;;;11.10;6.50;;;;;;;16.02;64.99;90785.38;4960794;28;20102;-86
2021/06/17 05:41:22;;;;;;;14.93;7.20;;;;;;;16.09;64.70;90779.41;4943248;28;20035;-86
2021/06/17 05:44:01;;;;;;;11.77;7.05;;;;;;;16.15;64.79;90779.84;4987057;28;20046;-89
2021/06/17 05:46:41;;;;;;;13.07;6.93;;;;;;;16.39;64.93;90789.75;4983204;28;20035;-89
2021/06/17 05:49:24;;;;;;;12.00;7.18;;;;;;;16.53;63.37;90786.44;4979513;28;20036;-88
2021/06/17 05:52:04;;;;;;;12.68;7.20;;;;;;;16.66;64.92;90784.28;4974050;28;20804;-86
2021/06/17 05:54:38;;;;;;;12.93;7.05;;;;;;;16.80;64.83;90789.66;4958499;28;20030;-86
2021/06/17 05:57:19;;;;;;;12.15;7.50;;;;;;;16.93;64.08;90796.09;4958187;28;20030;-86
2021/06/17 05:59:54;;;;;;;13.95;7.20;;;;;;;17.01;63.58;90790.88;4974619;28;20035;-86
2021/06/17 06:02:26;;;;;;;10.52;6.93;;;;;;;17.13;64.29;90791.28;4957883;28;20030;-86
2021/06/17 06:05:08;;;;;;;11.75;7.47;;;;;;;17.28;63.98;90792.13;4957402;28;20400;-86
2021/06/17 06:07:46;;;;;;;14.68;7.65;;;;;;;17.41;63.94;90797.78;4973260;28;20030;-86
2021/06/17 06:10:17;;;;;;;14.48;8.18;;;;;;;17.61;63.21;90798.97;4974035;28;20081;-88
2021/06/17 06:12:49;;;;;;;12.18;7.60;;;;;;;17.75;63.44;90803.50;4957631;28;20027;-86
2021/06/17 06:15:27;;;;;;;13.35;7.53;;;;;;;17.91;63.30;90800.53;4972994;28;20033;-86
2021/06/17 06:18:11;;;;;;;12.05;7.15;;;;;;;18.04;62.58;90803.56;4957472;28;20023;-86
2021/06/17 06:20:48;;;;;;;10.10;6.53;;;;;;;18.15;62.86;90810.34;4972391;28;20030;-86
2021/06/17 06:23:25;;;;;;;11.65;7.47;;;;;;;18.36;63.01;90812.22;4972505;28;20054;-87
2021/06/17 06:25:52;;;;;;;14.95;7.82;;;;;;;18.55;63.52;90823.50;4957015;28;20393;-86
2021/06/17 06:28:37;;;;;;;14.60;7.80;;;;;;;18.78;67.99;90831.06;4972221;28;20259;-86
2021/06/17 06:31:06;;;;;;;11.68;7.10;;;;;;;18.92;66.59;90823.13;4988671;28;20026;-86
2021/06/17 06:33:44;;;;;;;14.43;7.53;;;;;;;19.11;68.18;90820.03;4973961;28;20114;-86
2021/06/17 06:36:17;;;;;;;12.10;7.80;;;;;;;19.28;69.88;90812.44;4975058;28;20030;-85
2021/06/17 06:38:56;;;;;;;14.73;8.13;;;;;;;19.53;66.62;90822.91;4976195;28;20046;-86
2021/06/17 06:41:37;;;;;;;12.32;7.90;;;;;;;19.76;63.47;90819.81;4976108;28;20268;-86
2021/06/17 06:44:18;;;;;;;10.82;7.45;;;;;;;19.96;58.52;90806.84;4991840;28;20022;-86
2021/06/17 06:47:00;;;;;;;17.10;8.10;;;;;;;20.17;58.92;90806.69;4992970;28;20030;-86
2021/06/17 06:49:42;;;;;;;16.13;8.40;;;;;;;20.46;54.15;90795.88;4991829;28;20050;-87
2021/06/17 06:52:21;;;;;;;14.45;8.20;;;;;;;20.69;53.75;90797.97;4992005;28;20030;-86
2021/06/17 06:54:59;;;;;;;15.35;8.68;;;;;;;20.86;51.88;90801.59;4993096;28;20449;-86
2021/06/17 06:57:39;;;;;;;15.50;8.73;;;;;;;21.08;52.63;90799.50;4992724;28;20396;-86
2021/06/17 07:00:22;;;;;;;14.23;9.15;;;;;;;21.35;50.09;90810.94;4978165;28;20407;-87
2021/06/17 07:03:00;;;;;;;13.85;9.10;;;;;;;21.51;50.21;90804.31;4991749;28;20536;-86
2021/06/17 07:05:36;;;;;;;14.95;8.77;;;;;;;21.74;48.39;90799.09;4992026;28;20262;-86
2021/06/17 07:08:14;;;;;;;16.05;9.13;;;;;;;21.86;47.15;90797.81;4976174;28;20034;-86
2021/06/17 07:10:46;;;;;;;14.15;9.18;;;;;;;21.97;47.53;90806.34;4976554;28;20022;-86
2021/06/17 07:13:27;;;;;;;14.57;8.90;;;;;;;22.12;48.60;90809.56;4968032;28;20054;-86
2021/06/17 07:16:01;;;;;;;14.70;8.80;;;;;;;22.17;47.90;90806.50;4971897;28;20102;-88
2021/06/17 07:18:35;;;;;;;;;;;;;;;22.38;47.74;90816.78;4958739;28;20377;-88
2021/06/17 07:21:11;;;;;;;14.17;8.93;;;;;;;22.47;47.08;90813.59;4972042;28;19910;-86
2021/06/17 07:23:41;;;;;;;14.13;8.95;;;;;;;22.48;45.47;90822.34;4940927;28;20022;-87
2021/06/17 07:26:20;;;;;;;14.60;8.45;;;;;;;22.63;45.33;90827.00;4972400;28;20452;-87
2021/06/17 07:28:58;;;;;;;14.40;8.43;;;;;;;22.79;46.28;90821.06;4957001;28;20035;-86
2021/06/17 07:31:42;;;;;;;13.93;8.32;;;;;;;22.96;45.65;90834.47;4956800;28;20434;-87
2021/06/17 07:34:21;;;;;;;14.07;9.20;;;;;;;23.04;44.05;90820.66;4974306;28;20030;-86
2021/06/17 07:36:57;;;;;;;16.20;8.13;;;;;;;23.16;44.75;90821.97;4983215;28;20056;-86
2021/06/17 07:39:31;;;;;;;12.48;8.23;;;;;;;23.29;44.44;90825.53;4994660;28;20022;-87
2021/06/17 07:42:10;;;;;;;15.02;8.27;;;;;;;23.40;43.06;90830.66;4994582;28;20038;-87
2021/06/17 07:44:53;;;;;;;12.70;8.25;;;;;;;23.51;43.33;90833.09;4995964;28;20496;-87
2021/06/17 07:47:31;;;;;;;14.40;9.10;;;;;;;23.49;43.80;90832.75;4994297;28;20030;-87
2021/06/17 07:50:08;;;;;;;13.35;8.65;;;;;;;23.56;44.54;90840.59;4994341;28;20054;-86
2021/06/17 07:52:50;;;;;;;14.02;8.52;;;;;;;23.55;43.11;90837.19;4994838;28;20027;-86
2021/06/17 07:55:32;;;;;;;20.27;9.95;;;;;;;23.62;42.55;90842.38;4979664;28;20030;-86
2021/06/17 07:58:10;;;;;;;18.45;9.88;;;;;;;23.72;44.24;90843.34;4994947;28;20030;-88
2021/06/17 08:00:44;;;;;;;25.73;13.07;;;;;;;23.69;44.87;90830.88;5036773;23;20046;-86
2021/06/17 08:03:17;;;;;;;24.08;12.93;;;;;;;23.84;44.99;90833.97;4994012;28;20025;-85
2021/06/17 08:05:52;;;;;;;17.80;12.82;;;;;;;23.88;44.90;90824.00;4993767;28;20026;-86
2021/06/17 08:08:32;;;;;;;25.50;14.18;;;;;;;23.76;45.57;90830.72;4993595;28;20037;-88
2021/06/17 08:11:09;;;;;;;23.60;11.73;;;;;;;23.95;45.14;90828.44;4992645;28;20049;-88
2021/06/17 08:13:45;;;;;;;20.20;13.27;;;;;;;24.00;45.06;90828.72;5029693;28;20022;-86
2021/06/17 08:16:17;;;;;;;20.45;14.00;;;;;;;24.00;47.36;90826.03;5013404;28;20447;-86
2021/06/17 08:18:56;;;;;;;25.45;15.25;;;;;;;24.10;48.91;90827.00;5008417;28;20014;-89
2021/06/17 08:21:34;;;;;;;22.90;15.88;;;;;;;24.12;48.03;90818.56;5021058;28;20072;-86
2021/06/17 08:24:15;;;;;;;26.02;16.48;;;;;;;23.94;48.81;90835.66;5018172;28;20026;-88
2021/06/17 08:26:45;;;;;;;26.15;16.00;;;;;;;23.88;47.65;90841.88;5018606;28;20029;-86
2021/06/17 08:29:26;;;;;;;23.05;14.40;;;;;;;23.80;47.09;90831.41;5001404;28;20045;-86
2021/06/17 08:32:08;;;;;;;23.58;14.73;;;;;;;23.72;47.51;90830.03;5018132;28;20511;-86
2021/06/17 08:34:44;;;;;;;23.90;16.20;;;;;;;23.76;49.20;90836.03;5019120;28;20030;-88
2021/06/17 08:37:19;;;;;;;27.63;16.90;;;;;;;23.85;49.70;90833.59;5027286;28;20029;-87
2021/06/17 08:39:57;;;;;;;27.98;17.20;;;;;;;23.82;49.72;90828.34;5013892;28;20018;-86
2021/06/17 08:42:35;;;;;;;28.05;17.40;;;;;;;23.79;50.03;90835.22;5030299;28;20033;-86
2021/06/17 08:45:12;;;;;;;28.45;17.15;;;;;;;23.78;50.47;90833.72;4999645;28;20022;-86
2021/06/17 08:47:46;;;;;;;27.58;17.00;;;;;;;24.02;50.25;90836.28;4992864;28;20026;-86
2021/06/17 08:50:22;;;;;;;23.52;17.17;;;;;;;24.03;49.50;90833.22;4977321;28;20038;-88
2021/06/17 08:52:58;;;;;;;28.08;17.95;;;;;;;24.01;49.71;90835.53;4994265;28;20399;-86
2021/06/17 08:55:36;;;;;;;26.98;17.75;;;;;;;24.08;49.71;90835.38;4977543;28;20026;-87
2021/06/17 08:58:14;;;;;;;26.33;17.10;;;;;;;23.99;49.35;90837.09;5009922;28;20022;-86
2021/06/17 09:00:56;;;;;;;27.08;17.48;;;;;;;24.02;48.68;90829.03;4977207;28;20038;-85
2021/06/17 09:03:37;;;;;;;26.20;16.40;;;;;;;24.24;47.79;90834.66;5008527;28;20038;-86
2021/06/17 09:06:14;;;;;;;26.73;16.25;;;;;;;24.59;50.30;90832.34;5008853;28;20392;-85
2021/06/17 09:08:59;;;;;;;28.55;17.60;;;;;;;24.75;53.38;90832.38;4993174;28;20085;-85
2021/06/17 09:11:32;;;;;;;;;;;;;;;24.86;48.40;90829.44;4994012;28;20050;-88
2021/06/17 09:14:24;;;;;;;26.15;16.45;;;;;;;24.54;46.13;90822.22;4992977;28;20431;-85
2021/06/17 09:17:14;;;;;;;31.77;16.88;;;;;;;24.66;46.87;90818.13;4978435;28;20536;-86
2021/06/17 09:19:51;;;;;;;29.38;15.75;;;;;;;24.62;48.14;90823.53;4994157;28;20049;-85
2021/06/17 09:22:31;;;;;;;23.02;15.27;;;;;;;24.96;48.00;90820.44;4994313;28;20122;-85
2021/06/17 09:25:08;;;;;;;32.30;15.38;;;;;;;25.04;46.06;90831.66;4993786;28;20026;-84
2021/06/17 09:27:49;;;;;;;23.88;14.93;;;;;;;25.15;47.06;90832.16;5008376;28;20030;-84
2021/06/17 09:30:22;;;;;;;29.08;17.95;;;;;;;24.97;47.31;90835.25;5008560;28;20030;-86
2021/06/17 09:33:00;;;;;;;28.30;16.35;;;;;;;24.83;45.17;90840.19;5008503;28;20022;-84
2021/06/17 09:35:36;;;;;;;30.02;18.13;;;;;;;24.58;47.49;90843.44;5009325;28;20030;-85
2021/06/17 09:38:14;;;;;;;32.92;17.38;;;;;;;24.37;47.19;90834.00;5027057;28;20025;-86
2021/06/17 09:40:50;;;;;;;29.80;18.23;;;;;;;24.34;47.76;90838.22;4996410;28;20075;-85
2021/06/17 09:43:38;;;;;;;29.48;17.98;;;;;;;24.40;47.18;90849.19;4996962;28;20036;-86
2021/06/17 09:46:20;;;;;;;27.85;17.67;;;;;;;24.34;47.80;90846.97;5012923;28;20618;-86
2021/06/17 09:49:05;;;;;;;31.85;18.83;;;;;;;24.66;49.64;90847.44;4997263;28;20029;-86
2021/06/17 09:51:42;;;;;;;;;;;;;;;24.50;48.73;90850.84;5013481;28;20037;-84
2021/06/17 09:54:32;;;;;;;27.63;18.33;;;;;;;24.28;48.95;90845.97;5012527;28;19963;-85
2021/06/17 09:57:12;;;;;;;31.42;18.20;;;;;;;24.27;49.93;90852.44;4996363;28;20109;-85
2021/06/17 09:59:54;;;;;;;33.58;18.40;;;;;;;24.36;48.73;90851.16;4995231;28;20033;-85
2021/06/17 10:02:33;;;;;;;32.20;18.30;;;;;;;24.70;49.43;90838.22;4997037;28;20025;-86
2021/06/17 10:05:20;;;;;;;28.83;18.42;;;;;;;24.68;47.94;90837.13;4981469;28;20403;-85
2021/06/17 10:07:57;;;;;;;30.15;18.30;;;;;;;24.76;46.81;90839.19;5012795;28;20125;-86
2021/06/17 10:10:35;;;;;;;30.15;17.23;;;;;;;24.86;47.44;90831.34;4980051;28;20030;-85
2021/06/17 10:13:12;;;;;;;26.55;17.75;;;;;;;25.10;46.87;90835.31;4991756;28;20115;-86
2021/06/17 10:15:50;;;;;;;30.80;17.00;;;;;;;25.07;45.86;90833.50;4976856;28;20026;-86
2021/06/17 10:18:28;;;;;;;29.55;17.90;;;;;;;25.21;46.55;90841.16;4993277;28;20029;-86
2021/06/17 10:21:03;;;;;;;31.25;18.27;;;;;;;25.46;49.24;90835.16;4991453;28;20030;-86
2021/06/17 10:23:47;;;;;;;28.52;18.92;;;;;;;25.41;46.77;90837.63;4991740;28;20571;-85
2021/06/17 10:26:24;;;;;;;27.48;19.00;;;;;;;25.71;49.50;90845.16;4991470;28;20121;-85
2021/06/17 10:29:03;;;;;;;24.88;17.08;;;;;;;25.75;46.84;90839.72;4991919;28;20045;-87
2021/06/17 10:31:47;;;;;;;25.27;17.58;;;;;;;26.02;47.22;90847.41;4991514;28;20022;-86
2021/06/17 10:34:34;;;;;;;24.42;16.80;;;;;;;26.19;49.00;90835.44;4991381;28;20054;-86
2021/06/17 10:37:31;;;;;;;30.73;17.27;;;;;;;26.28;46.00;90834.06;4991417;28;20029;-84
2021/06/17 10:40:19;;;;;;;21.88;14.90;;;;;;;26.19;42.40;90824.78;4991818;28;20506;-85
2021/06/17 10:42:57;;;;;;;19.73;14.45;;;;;;;26.18;45.14;90823.28;4991437;28;20395;-86
2021/06/17 10:45:44;;;;;;;21.55;15.43;;;;;;;26.17;43.60;90821.75;4991371;28;20026;-86
2021/06/17 10:48:28;;;;;;;20.85;15.25;;;;;;;26.18;44.89;90825.94;4975669;28;20023;-84
2021/06/17 10:51:11;;;;;;;23.83;15.90;;;;;;;26.19;41.90;90827.44;4977183;28;20578;-87
2021/06/17 10:53:46;;;;;;;22.60;15.57;;;;;;;26.33;44.08;90825.53;4975046;28;20081;-86
2021/06/17 10:56:22;;;;;;;28.83;16.63;;;;;;;26.30;44.52;90834.38;4991895;28;20030;-85
2021/06/17 10:59:01;;;;;;;21.38;14.85;;;;;;;26.62;43.97;90828.09;4991321;28;20030;-85
2021/06/17 11:01:44;;;;;;;23.08;14.43;;;;;;;26.73;40.63;90828.50;4990352;28;20113;-86
2021/06/17 11:04:35;;;;;;;21.87;15.13;;;;;;;26.66;41.11;90826.78;4992174;28;20026;-85
2021/06/17 11:07:15;;;;;;;24.30;14.88;;;;;;;26.88;43.71;90831.47;4976105;28;20030;-86
2021/06/17 11:09:57;;;;;;;24.13;13.73;;;;;;;27.08;40.70;90836.56;4990742;28;20030;-86
2021/06/17 11:12:44;;;;;;;18.45;12.02;;;;;;;27.25;41.32;90837.94;4980085;28;20029;-86
2021/06/17 11:15:35;;;;;;;22.05;11.75;;;;;;;27.13;38.02;90834.09;4994927;28;20403;-85
2021/06/17 11:18:07;;;;;;;18.95;11.70;;;;;;;27.16;36.75;90829.81;4979401;28;20468;-85
2021/06/17 11:20:44;;;;;;;18.73;11.80;;;;;;;27.00;36.95;90819.22;5013342;28;20102;-88
2021/06/17 11:23:21;;;;;;;20.70;12.02;;;;;;;27.28;40.04;90828.25;4986147;28;20030;-86
2021/06/17 11:25:57;;;;;;;20.55;12.73;;;;;;;27.43;39.11;90823.19;4984569;28;20026;-87
2021/06/17 11:28:50;;;;;;;29.10;17.85;;;;;;;27.23;41.79;90829.56;4986131;28;20076;-87
2021/06/17 11:31:48;;;;;;;28.73;17.58;;;;;;;26.76;43.19;90829.56;4999888;28;20026;-87
2021/06/17 11:34:41;;;;;;;23.42;17.17;;;;;;;26.70;44.02;90824.75;5002464;28;20025;-85
2021/06/17 11:37:27;;;;;;;27.42;17.80;;;;;;;26.66;43.93;90824.13;5002148;28;20030;-87
2021/06/17 11:40:07;;;;;;;26.13;17.35;;;;;;;26.67;44.06;90828.28;5003156;28;20101;-86
2021/06/17 11:42:48;;;;;;;24.80;17.33;;;;;;;26.35;43.47;90825.81;4987147;28;20530;-86
2021/06/17 11:45:24;;;;;;;26.88;17.33;;;;;;;26.35;44.55;90821.22;5002839;28;20102;-88
2021/06/17 11:48:00;;;;;;;28.27;18.42;;;;;;;26.01;44.24;90816.53;4985663;28;20054;-88
2021/06/17 11:50:34;;;;;;;29.95;19.00;;;;;;;26.00;45.37;90831.03;4988700;28;20034;-86
2021/06/17 11:53:14;;;;;;;23.60;16.90;;;;;;;26.30;44.65;90823.72;5013000;28;20018;-85
2021/06/17 11:55:52;;;;;;;25.95;17.75;;;;;;;26.69;47.94;90825.19;4998140;28;20022;-85
2021/06/17 11:58:31;;;;;;;27.63;17.38;;;;;;;26.56;43.99;90822.53;5010512;28;20027;-85
2021/06/17 12:01:13;;;;;;;30.92;18.17;;;;;;;26.60;41.98;90820.50;4978745;28;20101;-85
2021/06/17 12:04:10;;;;;;;27.50;17.58;;;;;;;26.34;43.47;90819.00;5010192;28;20030;-83
2021/06/17 12:06:50;;;;;;;27.58;17.40;;;;;;;26.48;42.78;90815.19;4982321;28;20030;-85
2021/06/17 12:09:31;;;;;;;26.05;17.05;;;;;;;26.28;44.89;90821.44;4978346;28;20041;-84
2021/06/17 12:12:24;;;;;;;32.33;17.23;;;;;;;26.12;42.76;90821.56;4979115;28;20026;-86
2021/06/17 12:15:08;;;;;;;28.33;16.63;;;;;;;26.26;43.63;90817.72;5010664;28;20081;-85
2021/06/17 12:17:46;;;;;;;;;;;;;;;26.16;42.91;90819.53;5001834;28;20027;-87
2021/06/17 12:20:36;;;;;;;26.17;16.70;;;;;;;26.16;43.10;90820.28;5001148;28;19910;-86
2021/06/17 12:23:18;;;;;;;25.05;17.25;;;;;;;26.36;45.10;90817.41;4999176;28;20030;-88
2021/06/17 12:25:57;;;;;;;26.75;16.88;;;;;;;26.77;41.30;90817.69;5002313;28;20050;-85